createdAt,value
2022-11-23T00:00:25.771Z,4.63
2022-11-23T00:01:25.770Z,4.63
2022-11-23T00:03:08.309Z,4.68
2022-11-23T00:04:08.307Z,4.70
2022-11-23T00:07:34.237Z,4.67
2022-11-23T00:08:34.156Z,4.63
2022-11-23T00:11:11.794Z,4.77
2022-11-23T00:12:11.803Z,4.70
2022-11-23T00:13:11.795Z,4.74
2022-11-23T00:15:31.828Z,4.66
2022-11-23T00:16:29.400Z,4.68
2022-11-23T00:17:29.403Z,4.80
2022-11-23T00:18:29.408Z,4.71
2022-11-23T00:19:29.644Z,4.74
2022-11-23T00:20:29.407Z,4.74
2022-11-23T00:21:29.411Z,4.75
2022-11-23T00:22:29.416Z,4.73
2022-11-23T00:23:29.417Z,4.75
2022-11-23T00:25:42.008Z,4.77
2022-11-23T00:26:42.018Z,4.70
2022-11-23T00:27:42.017Z,4.77
2022-11-23T00:28:42.017Z,4.82
2022-11-23T00:29:42.025Z,4.73
2022-11-23T00:30:42.045Z,4.75
2022-11-23T00:31:42.025Z,4.78
2022-11-23T00:32:42.020Z,4.73
2022-11-23T00:33:42.029Z,4.78
2022-11-23T00:34:42.028Z,4.87
2022-11-23T00:36:29.581Z,4.82
2022-11-23T00:37:29.579Z,4.80
2022-11-23T00:38:29.585Z,4.78
2022-11-23T00:39:29.975Z,4.75
2022-11-23T00:40:29.580Z,4.78
2022-11-23T00:41:29.579Z,4.73
2022-11-23T00:42:33.769Z,4.80
2022-11-23T00:43:29.587Z,4.86
2022-11-23T00:44:29.588Z,4.89
2022-11-23T00:45:29.593Z,4.77
2022-11-23T00:46:29.612Z,4.75
2022-11-23T00:47:29.592Z,4.82
2022-11-23T00:48:29.601Z,4.75
2022-11-23T00:49:29.772Z,4.97
2022-11-23T00:50:29.599Z,4.75
2022-11-23T00:51:29.599Z,4.87
2022-11-23T00:52:29.602Z,4.73
2022-11-23T00:53:29.611Z,4.82
2022-11-23T00:54:29.636Z,4.75
2022-11-23T00:55:29.608Z,4.80
2022-11-23T00:56:29.616Z,4.78
2022-11-23T00:57:29.616Z,4.80
2022-11-23T00:58:29.613Z,4.75
2022-11-23T00:59:30.193Z,4.92
2022-11-23T01:00:29.616Z,4.77
2022-11-23T01:01:29.633Z,4.87
2022-11-23T01:02:29.642Z,4.94
2022-11-23T01:03:29.630Z,4.78
2022-11-23T01:04:29.630Z,4.90
2022-11-23T01:05:29.630Z,4.86
2022-11-23T01:06:29.626Z,4.74
2022-11-23T01:07:29.710Z,4.92
2022-11-23T01:08:29.637Z,4.96
2022-11-23T01:09:30.043Z,4.74
2022-11-23T01:10:29.635Z,4.82
2022-11-23T01:11:29.645Z,4.86
2022-11-23T01:12:29.656Z,4.87
2022-11-23T01:13:29.648Z,4.87
2022-11-23T01:14:29.642Z,4.89
2022-11-23T01:15:29.647Z,4.80
2022-11-23T01:16:29.656Z,4.74
2022-11-23T01:17:29.657Z,4.74
2022-11-23T01:18:29.677Z,4.92
2022-11-23T01:19:30.055Z,4.90
2022-11-23T01:20:29.662Z,4.87
2022-11-23T01:21:29.654Z,4.87
2022-11-23T01:22:29.664Z,4.92
2022-11-23T01:23:29.660Z,4.92
2022-11-23T01:24:29.663Z,4.87
2022-11-23T01:25:30.270Z,4.87
2022-11-23T01:26:29.676Z,4.92
2022-11-23T01:27:29.668Z,4.89
2022-11-23T01:28:29.680Z,4.74
2022-11-23T01:29:29.880Z,4.71
2022-11-23T01:30:29.686Z,4.77
2022-11-23T01:31:29.690Z,4.71
2022-11-23T01:32:29.679Z,4.77
2022-11-23T01:33:29.678Z,4.70
2022-11-23T01:34:29.702Z,4.77
2022-11-23T01:35:29.682Z,4.67
2022-11-23T01:36:29.693Z,4.70
2022-11-23T01:37:29.692Z,4.67
2022-11-23T01:38:29.691Z,4.73
2022-11-23T01:39:30.050Z,4.73
2022-11-23T01:40:29.693Z,4.66
2022-11-23T01:41:29.699Z,4.71
2022-11-23T01:42:29.704Z,4.70
2022-11-23T01:43:29.699Z,4.73
2022-11-23T01:44:29.717Z,4.62
2022-11-23T01:45:29.701Z,4.66
2022-11-23T01:46:29.711Z,4.62
2022-11-23T01:47:29.711Z,4.59
2022-11-23T01:48:29.713Z,4.67
2022-11-23T01:49:29.987Z,4.68
2022-11-23T01:50:29.732Z,4.68
2022-11-23T01:52:57.344Z,4.68
2022-11-23T01:53:57.338Z,4.63
2022-11-23T01:54:57.341Z,4.70
2022-11-23T01:55:57.343Z,4.59
2022-11-23T01:56:57.356Z,4.70
2022-11-23T01:57:57.352Z,4.62
2022-11-23T01:58:57.353Z,4.67
2022-11-23T01:59:57.352Z,4.62
2022-11-23T02:02:04.942Z,4.60
2022-11-23T02:03:04.943Z,4.62
2022-11-23T02:04:04.945Z,4.52
2022-11-23T02:05:04.946Z,4.53
2022-11-23T02:06:04.968Z,4.52
2022-11-23T02:07:05.084Z,4.55
2022-11-23T02:08:04.943Z,4.50
2022-11-23T02:09:04.953Z,4.55
2022-11-23T02:10:04.952Z,4.52
2022-11-23T02:11:04.956Z,4.55
2022-11-23T02:12:04.949Z,4.45
2022-11-23T02:13:04.960Z,4.56
2022-11-23T02:14:04.960Z,4.52
2022-11-23T02:15:04.963Z,4.52
2022-11-23T02:16:04.955Z,4.55
2022-11-23T02:17:04.959Z,4.52
2022-11-23T02:18:04.959Z,4.52
2022-11-23T02:19:04.963Z,4.58
2022-11-23T02:20:04.969Z,4.40
2022-11-23T02:21:04.966Z,4.48
2022-11-23T02:22:04.989Z,4.48
2022-11-23T02:23:04.969Z,4.42
2022-11-23T02:24:04.988Z,4.52
2022-11-23T02:25:04.975Z,4.59
2022-11-23T02:26:04.984Z,4.56
2022-11-23T02:27:04.975Z,4.52
2022-11-23T02:28:04.978Z,4.52
2022-11-23T02:29:04.988Z,4.55
2022-11-23T02:30:04.988Z,4.53
2022-11-23T02:31:04.990Z,4.48
2022-11-23T02:32:04.991Z,4.49
2022-11-23T02:33:04.992Z,4.53
2022-11-23T02:34:04.989Z,4.58
2022-11-23T02:35:04.996Z,4.49
2022-11-23T02:36:04.990Z,4.52
2022-11-23T02:37:04.991Z,4.55
2022-11-23T02:38:05.014Z,4.50
2022-11-23T02:39:05.002Z,4.55
2022-11-23T02:40:05.002Z,4.56
2022-11-23T02:41:04.998Z,4.53
2022-11-23T02:42:05.000Z,4.52
2022-11-23T02:43:05.009Z,4.50
2022-11-23T02:44:05.001Z,4.44
2022-11-23T02:45:05.005Z,4.45
2022-11-23T02:46:05.018Z,4.41
2022-11-23T02:47:05.078Z,4.44
2022-11-23T02:48:05.015Z,4.48
2022-11-23T02:49:05.018Z,4.44
2022-11-23T02:50:05.019Z,4.41
2022-11-23T02:51:05.029Z,4.42
2022-11-23T02:52:05.021Z,4.49
2022-11-23T02:53:05.020Z,4.45
2022-11-23T02:54:05.114Z,4.50
2022-11-23T02:55:05.029Z,4.40
2022-11-23T02:56:05.027Z,4.44
2022-11-23T02:57:05.030Z,4.41
2022-11-23T02:58:05.035Z,4.44
2022-11-23T02:59:05.035Z,4.40
2022-11-23T03:00:05.027Z,4.35
2022-11-23T03:01:05.140Z,4.38
2022-11-23T03:02:05.039Z,4.30
2022-11-23T03:03:05.036Z,4.35
2022-11-23T03:04:05.033Z,4.22
2022-11-23T03:05:05.037Z,4.26
2022-11-23T03:06:05.037Z,4.16
2022-11-23T03:07:05.111Z,4.24
2022-11-23T03:08:05.047Z,4.24
2022-11-23T03:09:05.056Z,4.30
2022-11-23T03:10:05.064Z,4.32
2022-11-23T03:11:05.046Z,4.24
2022-11-23T03:12:05.057Z,4.23
2022-11-23T03:13:05.053Z,4.24
2022-11-23T03:14:05.062Z,4.24
2022-11-23T03:15:05.054Z,4.32
2022-11-23T03:16:05.061Z,4.35
2022-11-23T03:17:05.054Z,4.35
2022-11-23T03:18:05.061Z,4.42
2022-11-23T03:19:05.065Z,4.38
2022-11-23T03:20:05.065Z,4.41
2022-11-23T03:21:05.067Z,4.40
2022-11-23T03:22:05.060Z,4.48
2022-11-23T03:23:05.063Z,4.41
2022-11-23T03:24:05.063Z,4.41
2022-11-23T03:25:05.075Z,4.42
2022-11-23T03:26:09.792Z,4.42
2022-11-23T03:27:05.077Z,4.42
2022-11-23T03:28:05.079Z,4.41
2022-11-23T03:29:05.073Z,4.45
2022-11-23T03:30:05.082Z,4.37
2022-11-23T03:31:05.075Z,4.40
2022-11-23T03:32:05.076Z,4.38
2022-11-23T03:33:05.077Z,4.37
2022-11-23T03:34:05.080Z,4.38
2022-11-23T03:35:05.084Z,4.44
2022-11-23T03:36:05.091Z,4.44
2022-11-23T03:37:05.089Z,4.40
2022-11-23T03:38:05.093Z,4.41
2022-11-23T03:39:05.087Z,4.38
2022-11-23T03:40:05.095Z,4.32
2022-11-23T03:41:05.090Z,4.42
2022-11-23T03:42:05.112Z,4.41
2022-11-23T03:43:05.095Z,4.31
2022-11-23T03:44:05.093Z,4.30
2022-11-23T03:45:05.096Z,4.34
2022-11-23T03:46:05.113Z,4.35
2022-11-23T03:47:05.104Z,4.35
2022-11-23T03:48:05.100Z,4.35
2022-11-23T03:49:05.101Z,4.22
2022-11-23T03:50:05.104Z,4.32
2022-11-23T03:51:05.112Z,4.34
2022-11-23T03:52:05.104Z,4.32
2022-11-23T03:53:05.107Z,4.35
2022-11-23T03:54:05.107Z,4.42
2022-11-23T03:55:05.119Z,4.35
2022-11-23T03:56:05.112Z,4.38
2022-11-23T03:57:05.120Z,4.41
2022-11-23T03:58:05.133Z,4.48
2022-11-23T03:59:05.116Z,4.45
2022-11-23T04:00:05.115Z,4.42
2022-11-23T04:01:05.183Z,4.42
2022-11-23T04:02:05.118Z,4.50
2022-11-23T04:03:05.123Z,4.41
2022-11-23T04:04:05.130Z,4.35
2022-11-23T04:05:05.126Z,4.45
2022-11-23T04:06:05.128Z,4.40
2022-11-23T04:07:05.211Z,4.44
2022-11-23T04:08:05.129Z,4.42
2022-11-23T04:09:05.135Z,4.44
2022-11-23T04:10:05.131Z,4.45
2022-11-23T04:11:05.140Z,4.50
2022-11-23T04:12:05.141Z,4.58
2022-11-23T04:13:05.136Z,4.53
2022-11-23T04:14:05.167Z,4.53
2022-11-23T04:15:05.147Z,4.50
2022-11-23T04:16:05.147Z,4.50
2022-11-23T04:17:05.149Z,4.49
2022-11-23T04:18:05.151Z,4.55
2022-11-23T04:19:05.150Z,4.58
2022-11-23T04:20:05.155Z,4.50
2022-11-23T04:21:05.145Z,4.56
2022-11-23T04:22:05.150Z,4.53
2022-11-23T04:23:09.126Z,4.53
2022-11-23T04:24:05.149Z,4.58
2022-11-23T04:25:05.159Z,4.55
2022-11-23T04:26:05.159Z,4.50
2022-11-23T04:27:05.164Z,4.55
2022-11-23T04:28:05.162Z,4.52
2022-11-23T04:29:05.159Z,4.59
2022-11-23T04:30:05.249Z,4.53
2022-11-23T04:31:05.168Z,4.55
2022-11-23T04:32:05.168Z,4.58
2022-11-23T04:33:05.171Z,4.50
2022-11-23T04:34:05.165Z,4.52
2022-11-23T04:35:05.167Z,4.55
2022-11-23T04:36:05.176Z,4.50
2022-11-23T04:37:07.878Z,4.52
2022-11-23T04:38:05.170Z,4.53
2022-11-23T04:39:05.173Z,4.49
2022-11-23T04:40:05.182Z,4.52
2022-11-23T04:41:05.173Z,4.50
2022-11-23T04:42:05.184Z,4.52
2022-11-23T04:43:05.185Z,4.50
2022-11-23T04:44:05.178Z,4.50
2022-11-23T04:45:05.180Z,4.53
2022-11-23T04:46:05.212Z,4.50
2022-11-23T04:47:05.183Z,4.60
2022-11-23T04:48:05.193Z,4.60
2022-11-23T04:49:05.187Z,4.62
2022-11-23T04:50:05.200Z,4.67
2022-11-23T04:51:05.188Z,4.62
2022-11-23T04:52:05.193Z,4.66
2022-11-23T04:53:05.197Z,4.55
2022-11-23T04:54:05.194Z,4.68
2022-11-23T04:55:05.195Z,4.60
2022-11-23T04:56:05.207Z,4.62
2022-11-23T04:57:05.197Z,4.59
2022-11-23T04:58:05.198Z,4.63
2022-11-23T04:59:05.211Z,4.59
2022-11-23T05:00:05.202Z,4.60
2022-11-23T05:01:05.266Z,4.60
2022-11-23T05:02:05.225Z,4.63
2022-11-23T05:03:05.208Z,4.60
2022-11-23T05:04:05.207Z,4.66
2022-11-23T05:05:05.216Z,4.56
2022-11-23T05:06:05.211Z,4.63
2022-11-23T05:07:05.260Z,4.58
2022-11-23T05:08:05.216Z,4.60
2022-11-23T05:09:05.217Z,4.63
2022-11-23T05:10:05.223Z,4.63
2022-11-23T05:11:05.227Z,4.66
2022-11-23T05:12:05.226Z,4.60
2022-11-23T05:13:05.222Z,4.58
2022-11-23T05:14:05.224Z,4.60
2022-11-23T05:15:05.224Z,4.60
2022-11-23T05:16:05.227Z,4.62
2022-11-23T05:17:05.226Z,4.59
2022-11-23T05:18:05.257Z,4.62
2022-11-23T05:19:05.236Z,4.66
2022-11-23T05:20:05.232Z,4.60
2022-11-23T05:21:05.238Z,4.66
2022-11-23T05:22:05.247Z,4.59
2022-11-23T05:23:05.244Z,4.68
2022-11-23T05:24:05.245Z,4.60
2022-11-23T05:25:05.244Z,4.59
2022-11-23T05:26:05.240Z,4.67
2022-11-23T05:27:05.241Z,4.73
2022-11-23T05:28:23.365Z,4.68
2022-11-23T05:29:05.243Z,4.63
2022-11-23T05:30:05.268Z,4.74
2022-11-23T05:31:05.254Z,4.74
2022-11-23T05:32:05.261Z,4.71
2022-11-23T05:33:05.251Z,4.75
2022-11-23T05:34:05.277Z,4.73
2022-11-23T05:35:05.259Z,4.78
2022-11-23T05:36:05.265Z,4.74
2022-11-23T05:37:05.257Z,4.73
2022-11-23T05:38:05.258Z,4.77
2022-11-23T05:39:05.260Z,4.86
2022-11-23T05:40:05.267Z,4.74
2022-11-23T05:41:05.263Z,4.74
2022-11-23T05:42:05.265Z,4.80
2022-11-23T05:43:05.266Z,4.80
2022-11-23T05:44:05.269Z,4.80
2022-11-23T05:45:10.008Z,4.78
2022-11-23T05:46:05.269Z,4.78
2022-11-23T05:47:05.273Z,4.78
2022-11-23T05:48:05.273Z,4.77
2022-11-23T05:49:05.283Z,4.77
2022-11-23T05:50:05.300Z,4.71
2022-11-23T05:51:05.778Z,4.74
2022-11-23T05:52:05.281Z,4.77
2022-11-23T05:53:05.280Z,4.75
2022-11-23T05:54:05.291Z,4.87
2022-11-23T05:55:05.294Z,4.80
2022-11-23T05:56:05.287Z,4.80
2022-11-23T05:57:05.287Z,4.82
2022-11-23T05:58:05.297Z,4.82
2022-11-23T05:59:05.302Z,4.78
2022-11-23T06:00:05.549Z,4.78
2022-11-23T06:01:05.295Z,4.71
2022-11-23T06:02:05.304Z,4.77
2022-11-23T06:03:05.297Z,4.80
2022-11-23T06:04:05.349Z,4.80
2022-11-23T06:05:05.300Z,4.75
2022-11-23T06:06:05.329Z,4.75
2022-11-23T06:07:05.415Z,4.74
2022-11-23T06:08:05.310Z,4.75
2022-11-23T06:09:05.306Z,4.77
2022-11-23T06:10:05.311Z,4.73
2022-11-23T06:11:05.318Z,4.80
2022-11-23T06:12:05.310Z,4.71
2022-11-23T06:13:05.313Z,4.78
2022-11-23T06:14:08.757Z,4.80
2022-11-23T06:15:05.317Z,4.74
2022-11-23T06:16:05.317Z,4.78
2022-11-23T06:17:05.318Z,4.73
2022-11-23T06:18:05.329Z,4.74
2022-11-23T06:19:05.331Z,4.78
2022-11-23T06:20:05.324Z,4.77
2022-11-23T06:21:05.324Z,4.77
2022-11-23T06:22:05.348Z,4.74
2022-11-23T06:23:05.339Z,4.82
2022-11-23T06:24:05.338Z,4.68
2022-11-23T06:25:05.343Z,4.71
2022-11-23T06:26:05.340Z,4.77
2022-11-23T06:27:05.344Z,4.74
2022-11-23T06:28:05.342Z,4.80
2022-11-23T06:29:05.337Z,4.80
2022-11-23T06:30:05.345Z,4.82
2022-11-23T06:31:05.340Z,4.78
2022-11-23T06:32:05.353Z,4.71
2022-11-23T06:33:05.351Z,4.71
2022-11-23T06:34:05.345Z,4.75
2022-11-23T06:35:05.346Z,4.80
2022-11-23T06:36:05.347Z,4.71
2022-11-23T06:37:05.350Z,4.68
2022-11-23T06:38:05.376Z,4.71
2022-11-23T06:39:05.360Z,4.71
2022-11-23T06:40:05.353Z,4.77
2022-11-23T06:41:05.358Z,4.67
2022-11-23T06:42:23.731Z,4.71
2022-11-23T06:43:05.357Z,4.82
2022-11-23T06:44:05.362Z,4.66
2022-11-23T06:45:05.363Z,4.75
2022-11-23T06:46:05.369Z,4.70
2022-11-23T06:47:05.365Z,4.78
2022-11-23T06:48:05.371Z,4.77
2022-11-23T06:49:05.399Z,4.77
2022-11-23T06:50:05.367Z,4.71
2022-11-23T06:51:05.371Z,4.87
2022-11-23T06:52:05.379Z,4.74
2022-11-23T06:53:05.374Z,4.73
2022-11-23T06:54:05.510Z,4.73
2022-11-23T06:55:05.384Z,4.78
2022-11-23T06:56:05.375Z,4.82
2022-11-23T06:57:05.387Z,4.80
2022-11-23T06:58:05.385Z,4.73
2022-11-23T06:59:05.390Z,4.77
2022-11-23T07:00:05.390Z,4.74
2022-11-23T07:01:06.292Z,4.80
2022-11-23T07:02:05.386Z,4.74
2022-11-23T07:03:05.394Z,4.75
2022-11-23T07:04:05.396Z,4.67
2022-11-23T07:05:05.399Z,4.90
2022-11-23T07:06:05.398Z,4.87
2022-11-23T07:07:05.490Z,4.86
2022-11-23T07:08:05.401Z,4.75
2022-11-23T07:09:05.402Z,4.84
2022-11-23T07:10:07.206Z,4.93
2022-11-23T07:11:05.406Z,4.99
2022-11-23T07:12:05.406Z,4.96
2022-11-23T07:13:05.400Z,4.93
2022-11-23T07:14:05.414Z,5.00
2022-11-23T07:15:05.411Z,5.15
2022-11-23T07:16:05.411Z,5.10
2022-11-23T07:17:05.408Z,5.00
2022-11-23T07:18:05.409Z,5.17
2022-11-23T07:19:05.422Z,5.20
2022-11-23T07:20:05.419Z,5.23
2022-11-23T07:21:05.422Z,5.23
2022-11-23T07:22:05.422Z,5.17
2022-11-23T07:23:05.417Z,5.23
2022-11-23T07:24:05.418Z,5.23
2022-11-23T07:25:05.429Z,5.21
2022-11-23T07:26:05.449Z,5.21
2022-11-23T07:27:05.430Z,5.18
2022-11-23T07:28:05.424Z,5.17
2022-11-23T07:29:05.436Z,5.12
2022-11-23T07:30:05.429Z,5.15
2022-11-23T07:31:05.440Z,5.17
2022-11-23T07:32:05.431Z,5.17
2022-11-23T07:33:05.441Z,5.12
2022-11-23T07:34:05.442Z,5.21
2022-11-23T07:35:05.438Z,5.15
2022-11-23T07:36:05.447Z,5.17
2022-11-23T07:37:05.442Z,5.18
2022-11-23T07:38:05.444Z,5.20
2022-11-23T07:39:05.461Z,5.17
2022-11-23T07:40:06.128Z,5.21
2022-11-23T07:41:05.453Z,5.18
2022-11-23T07:42:30.964Z,5.25
2022-11-23T07:43:05.454Z,5.23
2022-11-23T07:44:05.463Z,5.28
2022-11-23T07:45:05.461Z,5.23
2022-11-23T07:46:05.461Z,5.32
2022-11-23T07:47:05.463Z,5.32
2022-11-23T07:48:05.471Z,5.26
2022-11-23T07:49:05.467Z,5.30
2022-11-23T07:50:05.475Z,5.28
2022-11-23T07:51:05.478Z,5.39
2022-11-23T07:52:05.485Z,5.33
2022-11-23T07:53:05.476Z,5.41
2022-11-23T07:54:05.473Z,5.41
2022-11-23T07:55:05.486Z,5.48
2022-11-23T07:56:05.481Z,5.48
2022-11-23T07:57:05.489Z,5.56
2022-11-23T07:58:05.506Z,5.50
2022-11-23T07:59:05.486Z,5.47
2022-11-23T08:00:05.489Z,5.65
2022-11-23T08:01:05.499Z,5.61
2022-11-23T08:02:05.546Z,5.64
2022-11-23T08:03:26.596Z,5.61
2022-11-23T08:04:05.512Z,5.68
2022-11-23T08:05:07.730Z,5.71
2022-11-23T08:06:05.507Z,5.72
2022-11-23T08:07:05.588Z,5.69
2022-11-23T08:08:05.504Z,5.73
2022-11-23T08:09:05.507Z,5.75
2022-11-23T08:10:05.517Z,5.80
2022-11-23T08:11:48.059Z,5.83
2022-11-23T08:12:48.054Z,5.91
2022-11-23T08:13:48.082Z,5.94
2022-11-23T08:14:48.074Z,5.94
2022-11-23T08:15:53.628Z,5.93
2022-11-23T08:16:48.066Z,5.94
2022-11-23T08:17:48.075Z,6.02
2022-11-23T08:22:57.207Z,6.12
2022-11-23T08:23:57.216Z,6.12
2022-11-23T09:53:28.049Z,7.76
2022-11-23T09:54:28.029Z,7.73
2022-11-23T09:55:28.041Z,7.77
2022-11-23T09:56:28.041Z,7.82
2022-11-23T09:57:28.039Z,7.85
2022-11-23T09:58:28.039Z,7.85
2022-11-23T09:59:28.051Z,7.85
2022-11-23T10:00:28.051Z,7.87
2022-11-23T10:01:28.091Z,7.90
2022-11-23T10:02:28.050Z,7.87
2022-11-23T10:03:28.069Z,7.80
2022-11-23T10:04:28.055Z,7.85
2022-11-23T10:05:28.060Z,7.85
2022-11-23T10:06:28.064Z,8.00
2022-11-23T10:07:28.123Z,7.97
2022-11-23T10:08:28.079Z,8.08
2022-11-23T10:09:28.100Z,8.13
2022-11-23T10:10:28.077Z,8.13
2022-11-23T10:11:28.079Z,8.15
2022-11-23T10:12:28.091Z,8.26
2022-11-23T10:13:28.085Z,8.24
2022-11-23T10:14:28.092Z,8.24
2022-11-23T10:15:28.092Z,8.31
2022-11-23T10:16:28.098Z,8.37
2022-11-23T10:17:28.100Z,8.37
2022-11-23T10:18:28.107Z,8.37
2022-11-23T10:19:28.116Z,8.45
2022-11-23T10:20:28.122Z,8.44
2022-11-23T10:21:28.124Z,8.51
2022-11-23T10:22:28.131Z,8.60
2022-11-23T10:23:28.126Z,8.66
2022-11-23T10:24:28.131Z,8.67
2022-11-23T10:25:28.166Z,8.70
2022-11-23T10:26:28.195Z,8.74
2022-11-23T10:27:28.152Z,8.78
2022-11-23T10:28:28.150Z,8.84
2022-11-23T10:29:28.152Z,8.88
2022-11-23T10:30:28.173Z,8.89
2022-11-23T10:31:28.171Z,9.00
2022-11-23T10:32:28.171Z,9.14
2022-11-23T10:33:28.178Z,9.03
2022-11-23T10:34:28.174Z,9.06
2022-11-23T10:35:28.188Z,9.16
2022-11-23T10:36:28.335Z,9.18
2022-11-23T10:37:28.189Z,9.23
2022-11-23T10:38:28.199Z,9.37
2022-11-23T10:39:30.828Z,9.37
2022-11-23T10:40:28.201Z,9.40
2022-11-23T10:42:10.855Z,9.44
2022-11-23T10:43:10.817Z,9.58
2022-11-23T10:44:10.820Z,9.61
2022-11-23T10:45:10.825Z,9.74
2022-11-23T10:46:10.836Z,9.66
2022-11-23T10:47:10.842Z,9.79
2022-11-23T10:48:10.849Z,9.80
2022-11-23T10:49:10.852Z,9.86
2022-11-23T10:50:10.849Z,10.20
2022-11-23T10:51:10.856Z,10.41
2022-11-23T10:52:10.860Z,10.68
2022-11-23T10:53:10.865Z,11.00
2022-11-23T10:54:10.872Z,11.32
2022-11-23T10:55:10.879Z,11.60
2022-11-23T10:56:10.891Z,11.83
2022-11-23T10:57:10.893Z,11.95
2022-11-23T10:58:10.961Z,12.12
2022-11-23T10:59:10.911Z,12.12
2022-11-23T11:00:10.916Z,12.20
2022-11-23T11:01:10.924Z,12.15
2022-11-23T11:02:10.979Z,12.10
2022-11-23T11:03:10.941Z,12.02
2022-11-23T11:04:10.937Z,11.90
2022-11-23T11:05:10.944Z,11.84
2022-11-23T11:06:11.698Z,11.80
2022-11-23T11:07:11.017Z,11.86
2022-11-23T11:08:10.973Z,11.87
2022-11-23T11:09:13.615Z,11.75
2022-11-23T11:10:10.978Z,11.77
2022-11-23T11:11:10.991Z,11.78
2022-11-23T11:12:10.999Z,11.84
2022-11-23T11:13:11.007Z,12.09
2022-11-23T11:14:11.028Z,12.13
2022-11-23T11:15:12.241Z,12.22
2022-11-23T11:16:11.022Z,12.21
2022-11-23T11:17:11.035Z,12.22
2022-11-23T11:18:11.037Z,12.37
2022-11-23T11:19:11.051Z,12.53
2022-11-23T11:20:11.053Z,12.58
2022-11-23T11:21:11.058Z,12.72
2022-11-23T11:22:11.075Z,12.73
2022-11-23T11:23:11.075Z,12.68
2022-11-23T11:24:11.085Z,12.76
2022-11-23T11:25:11.089Z,12.79
2022-11-23T11:26:11.107Z,12.73
2022-11-23T11:27:11.113Z,12.68
2022-11-23T11:28:11.123Z,12.61
2022-11-23T11:29:11.122Z,12.64
2022-11-23T11:30:11.160Z,12.67
2022-11-23T11:31:11.146Z,12.58
2022-11-23T11:32:11.156Z,12.60
2022-11-23T11:33:11.153Z,12.60
2022-11-23T11:34:11.168Z,12.53
2022-11-23T11:35:12.823Z,12.61
2022-11-23T11:36:11.178Z,12.62
2022-11-23T11:37:11.193Z,12.60
2022-11-23T11:38:11.206Z,12.53
2022-11-23T11:39:19.577Z,12.53
2022-11-23T11:40:11.209Z,12.67
2022-11-23T11:41:11.227Z,12.57
2022-11-23T11:42:11.231Z,12.57
2022-11-23T11:43:11.241Z,12.55
2022-11-23T11:44:11.241Z,12.49
2022-11-23T11:45:11.249Z,12.47
2022-11-23T11:47:11.266Z,12.32
2022-11-23T11:48:11.280Z,12.20
2022-11-23T11:49:11.280Z,12.21
2022-11-23T11:50:11.401Z,12.10
2022-11-23T11:51:11.296Z,12.18
2022-11-23T11:52:11.317Z,12.10
2022-11-23T11:53:11.313Z,12.07
2022-11-23T11:54:11.320Z,12.00
2022-11-23T11:55:11.332Z,11.88
2022-11-23T11:56:11.334Z,11.84
2022-11-23T11:57:11.345Z,11.81
2022-11-23T11:58:11.357Z,11.77
2022-11-23T11:59:11.417Z,11.84
2022-11-23T12:00:11.446Z,11.75
2022-11-23T12:01:11.378Z,11.62
2022-11-23T12:02:11.401Z,11.51
2022-11-23T12:03:11.416Z,11.36
2022-11-23T12:04:11.392Z,11.35
2022-11-23T12:05:11.397Z,11.22
2022-11-23T12:06:11.406Z,11.27
2022-11-23T12:07:11.443Z,11.12
2022-11-23T12:08:11.425Z,11.14
2022-11-23T12:09:11.427Z,11.04
2022-11-23T12:10:11.473Z,11.04
2022-11-23T12:11:11.449Z,11.00
2022-11-23T12:12:11.445Z,11.02
2022-11-23T12:13:11.452Z,10.97
2022-11-23T12:14:11.457Z,10.90
2022-11-23T12:15:41.055Z,10.94
2022-11-23T12:16:11.476Z,10.82
2022-11-23T12:17:31.968Z,10.92
2022-11-23T12:18:11.939Z,10.90
2022-11-23T12:19:11.495Z,10.86
2022-11-23T12:20:11.613Z,10.78
2022-11-23T12:21:11.560Z,10.89
2022-11-23T12:22:11.537Z,10.79
2022-11-23T12:23:11.520Z,10.78
2022-11-23T12:24:11.525Z,10.69
2022-11-23T12:25:11.541Z,10.74
2022-11-23T12:26:11.535Z,10.71
2022-11-23T12:27:11.542Z,10.63
2022-11-23T12:28:11.540Z,10.60
2022-11-23T12:29:11.545Z,10.67
2022-11-23T12:30:11.713Z,10.67
2022-11-23T12:31:11.563Z,10.68
2022-11-23T12:32:11.563Z,10.64
2022-11-23T12:33:11.567Z,10.68
2022-11-23T12:34:11.594Z,10.68
2022-11-23T12:35:11.578Z,10.74
2022-11-23T12:36:11.586Z,10.64
2022-11-23T12:37:11.597Z,10.81
2022-11-23T12:38:11.602Z,10.78
2022-11-23T12:39:11.600Z,10.79
2022-11-23T12:40:11.610Z,10.81
2022-11-23T12:41:11.618Z,10.76
2022-11-23T12:42:11.619Z,10.86
2022-11-23T12:43:11.628Z,10.82
2022-11-23T12:44:11.628Z,10.84
2022-11-23T12:45:11.643Z,10.81
2022-11-23T12:46:11.639Z,10.79
2022-11-23T12:47:11.647Z,10.78
2022-11-23T12:48:11.658Z,10.72
2022-11-23T12:49:11.663Z,10.76
2022-11-23T12:50:11.689Z,10.79
2022-11-23T12:51:11.666Z,10.76
2022-11-23T12:52:11.673Z,10.75
2022-11-23T12:53:11.677Z,10.69
2022-11-23T12:54:11.842Z,10.64
2022-11-23T12:55:16.488Z,10.74
2022-11-23T12:56:11.777Z,10.61
2022-11-23T12:57:11.711Z,10.56
2022-11-23T12:58:11.706Z,10.53
2022-11-23T12:59:11.717Z,10.59
2022-11-23T13:00:11.717Z,10.54
2022-11-23T13:01:11.857Z,10.57
2022-11-23T13:02:11.751Z,10.49
2022-11-23T13:03:11.733Z,10.53
2022-11-23T13:04:11.739Z,10.44
2022-11-23T13:05:11.751Z,10.49
2022-11-23T13:06:11.779Z,10.53
2022-11-23T13:07:28.479Z,10.46
2022-11-23T13:08:11.775Z,10.44
2022-11-23T13:09:11.772Z,10.49
2022-11-23T13:10:11.768Z,10.42
2022-11-23T13:11:11.776Z,10.48
2022-11-23T13:12:11.784Z,10.46
2022-11-23T13:13:15.883Z,10.44
2022-11-23T13:14:11.791Z,10.35
2022-11-23T13:15:11.804Z,10.40
2022-11-23T13:16:11.943Z,10.40
2022-11-23T13:17:11.868Z,10.46
2022-11-23T13:18:11.811Z,10.40
2022-11-23T13:19:11.818Z,10.35
2022-11-23T13:20:11.829Z,10.44
2022-11-23T13:21:11.826Z,10.37
2022-11-23T13:22:11.851Z,10.35
2022-11-23T13:23:11.836Z,10.33
2022-11-23T13:24:11.850Z,10.26
2022-11-23T13:25:11.845Z,10.33
2022-11-23T13:26:11.861Z,10.31
2022-11-23T13:27:11.856Z,10.44
2022-11-23T13:28:11.863Z,10.22
2022-11-23T13:29:11.865Z,10.37
2022-11-23T13:30:11.879Z,10.23
2022-11-23T13:31:15.793Z,10.22
2022-11-23T13:32:12.007Z,10.30
2022-11-23T13:33:11.891Z,10.40
2022-11-23T13:34:11.896Z,10.35
2022-11-23T13:35:11.896Z,10.35
2022-11-23T13:36:18.304Z,10.37
2022-11-23T13:37:13.240Z,10.30
2022-11-23T13:38:11.945Z,10.28
2022-11-23T13:39:11.916Z,10.33
2022-11-23T13:40:11.928Z,10.34
2022-11-23T13:41:11.932Z,10.30
2022-11-23T13:42:11.928Z,10.42
2022-11-23T13:43:11.944Z,10.35
2022-11-23T13:44:11.947Z,10.44
2022-11-23T13:45:11.953Z,10.40
2022-11-23T13:46:12.029Z,10.41
2022-11-23T13:47:11.968Z,10.46
2022-11-23T13:48:34.144Z,10.48
2022-11-23T13:49:11.973Z,10.46
2022-11-23T13:50:11.968Z,10.48
2022-11-23T13:51:11.976Z,10.38
2022-11-23T13:52:11.985Z,10.42
2022-11-23T13:53:11.990Z,10.42
2022-11-23T13:54:12.021Z,10.38
2022-11-23T13:55:12.005Z,10.35
2022-11-23T13:56:12.010Z,10.28
2022-11-23T13:57:12.011Z,10.44
2022-11-23T13:58:12.013Z,10.35
2022-11-23T13:59:12.016Z,10.33
2022-11-23T14:00:12.030Z,10.25
2022-11-23T14:01:12.117Z,10.35
2022-11-23T14:02:12.072Z,10.28
2022-11-23T14:03:12.034Z,10.23
2022-11-23T14:04:12.042Z,10.22
2022-11-23T14:05:12.052Z,10.23
2022-11-23T14:06:12.055Z,10.34
2022-11-23T14:07:12.119Z,10.28
2022-11-23T14:08:12.060Z,10.19
2022-11-23T14:09:12.069Z,10.30
2022-11-23T14:10:12.087Z,10.19
2022-11-23T14:11:12.081Z,10.19
2022-11-23T14:12:12.098Z,10.28
2022-11-23T14:13:12.083Z,10.20
2022-11-23T14:14:12.086Z,10.25
2022-11-23T14:15:12.102Z,10.19
2022-11-23T14:16:12.153Z,10.17
2022-11-23T14:17:12.109Z,10.25
2022-11-23T14:18:12.107Z,10.22
2022-11-23T14:19:12.119Z,10.20
2022-11-23T14:20:12.116Z,10.23
2022-11-23T14:21:12.125Z,10.17
2022-11-23T14:22:12.132Z,10.20
2022-11-23T14:23:12.132Z,10.15
2022-11-23T14:24:15.768Z,10.12
2022-11-23T14:25:12.152Z,10.15
2022-11-23T14:26:12.176Z,10.15
2022-11-23T14:27:39.506Z,10.10
2022-11-23T14:28:12.162Z,10.07
2022-11-23T14:29:12.162Z,10.07
2022-11-23T14:30:12.171Z,10.09
2022-11-23T14:31:12.256Z,10.01
2022-11-23T14:32:12.243Z,10.04
2022-11-23T14:33:12.176Z,9.97
2022-11-23T14:34:12.190Z,9.99
2022-11-23T14:35:12.185Z,9.94
2022-11-23T14:36:12.191Z,9.98
2022-11-23T14:37:12.193Z,9.91
2022-11-23T14:38:12.207Z,9.82
2022-11-23T14:39:12.210Z,9.84
2022-11-23T14:40:12.218Z,9.84
2022-11-23T14:41:12.218Z,9.82
2022-11-23T14:42:12.241Z,9.79
2022-11-23T14:43:12.225Z,9.79
2022-11-23T14:44:12.226Z,9.73
2022-11-23T14:45:12.231Z,9.86
2022-11-23T14:46:12.261Z,9.72
2022-11-23T14:47:12.336Z,9.76
2022-11-23T14:48:12.249Z,9.73
2022-11-23T14:49:12.247Z,9.65
2022-11-23T14:50:12.259Z,9.74
2022-11-23T14:51:12.264Z,9.69
2022-11-23T14:52:12.269Z,9.69
2022-11-23T14:53:12.274Z,9.62
2022-11-23T14:54:12.277Z,9.66
2022-11-23T14:55:12.274Z,9.59
2022-11-23T14:56:12.277Z,9.61
2022-11-23T14:57:12.282Z,9.64